Time;durP1;ratioP1;P1;durP2;ratioP2;P2;SDS_P1;SDS_P2;PMS_P1;PMS_P2;Temp;Humidity;BMP_temperature;BMP_pressure;BME280_temperature;BME280_humidity;BME280_pressure;Samples;Min_cycle;Max_cycle;Signal;HPM_P1;HPM_P2
2022/06/28 00:00:04;;;;;;;0.68;0.57;;;14.20;81.80;;;;;;6336185;22;20407;-75
2022/06/28 00:02:30;;;;;;;0.40;0.40;;;14.10;81.70;;;;;;6320651;22;19998;-75
2022/06/28 00:04:55;;;;;;;0.75;0.60;;;14.10;81.70;;;;;;6335350;22;20765;-75
2022/06/28 00:07:21;;;;;;;0.50;0.50;;;14.10;81.80;;;;;;6307364;22;20006;-77
2022/06/28 00:09:47;;;;;;;0.70;0.60;;;14.10;81.70;;;;;;6280253;22;20027;-75
2022/06/28 00:12:12;;;;;;;0.40;0.40;;;14.10;81.80;;;;;;6336064;22;20061;-74
2022/06/28 00:17:28;;;;;;;1.08;0.73;;;14.10;81.80;;;;;;6314776;22;20038;-75
2022/06/28 00:19:54;;;;;;;0.60;0.60;;;14.10;81.80;;;;;;6335754;22;20010;-74
2022/06/28 00:22:20;;;;;;;1.58;0.70;;;14.00;81.80;;;;;;6339918;22;20006;-75
2022/06/28 00:24:45;;;;;;;0.52;0.52;;;14.10;81.90;;;;;;6340881;22;20346;-74
2022/06/28 00:27:11;;;;;;;0.40;0.40;;;14.00;82.00;;;;;;6336723;22;20006;-75
2022/06/28 00:29:37;;;;;;;1.05;0.80;;;14.00;82.10;;;;;;6305289;22;20327;-75
2022/06/28 00:32:03;;;;;;;1.13;0.88;;;14.00;82.10;;;;;;6338127;22;20074;-75
2022/06/28 00:34:28;;;;;;;0.60;0.57;;;14.10;82.10;;;;;;6336590;22;20064;-75
2022/06/28 00:36:54;;;;;;;1.55;0.60;;;14.00;82.10;;;;;;6336907;22;20427;-75
2022/06/28 00:39:20;;;;;;;1.23;0.70;;;13.90;82.00;;;;;;6336641;22;20338;-75
2022/06/28 00:41:46;;;;;;;1.23;0.75;;;13.90;82.00;;;;;;6309062;22;20045;-74
2022/06/28 00:44:13;;;;;;;0.90;0.55;;;13.90;82.10;;;;;;6309733;22;20006;-76
2022/06/28 00:46:39;;;;;;;1.30;0.80;;;13.90;82.10;;;;;;6336696;22;20002;-76
2022/06/28 00:49:06;;;;;;;0.70;0.70;;;13.90;82.20;;;;;;6311351;22;20097;-76
2022/06/28 00:51:32;;;;;;;0.80;0.70;;;13.90;82.20;;;;;;6310998;22;20458;-76
2022/06/28 00:53:59;;;;;;;2.22;0.80;;;13.90;82.20;;;;;;6338573;22;20013;-75
2022/06/28 00:56:25;;;;;;;0.75;0.50;;;13.90;82.30;;;;;;6309647;22;19995;-76
2022/06/28 00:58:52;;;;;;;0.95;0.70;;;13.90;82.40;;;;;;6337163;22;20461;-75
2022/06/28 01:01:20;;;;;;;0.63;0.60;;;13.80;82.30;;;;;;6336393;22;20018;-75
2022/06/28 01:03:46;;;;;;;0.98;0.70;;;13.80;82.40;;;;;;6337046;22;20007;-75
2022/06/28 01:06:12;;;;;;;1.13;0.80;;;13.80;82.40;;;;;;6308818;22;20042;-75
2022/06/28 01:08:38;;;;;;;0.63;0.63;;;13.80;82.50;;;;;;6337213;22;20011;-75
2022/06/28 01:11:18;;;;;;;0.60;0.60;;;13.80;83.10;;;;;;6337277;22;20011;-75
2022/06/28 01:13:47;;;;;;;1.10;0.70;;;13.70;82.50;;;;;;6336583;22;19995;-75
2022/06/28 01:16:14;;;;;;;0.50;0.50;;;13.70;82.50;;;;;;6312029;22;19994;-76
2022/06/28 01:18:40;;;;;;;1.25;0.80;;;13.70;82.50;;;;;;6336446;22;20006;-75
2022/06/28 01:21:06;;;;;;;0.75;0.52;;;13.80;82.60;;;;;;6337057;22;19995;-75
2022/06/28 01:23:32;;;;;;;0.60;0.60;;;13.70;82.60;;;;;;6336482;22;20059;-75
2022/06/28 01:25:59;;;;;;;0.57;0.50;;;13.70;82.60;;;;;;6337102;22;20376;-75
2022/06/28 01:28:25;;;;;;;0.90;0.73;;;13.70;82.60;;;;;;6283323;22;20015;-76
2022/06/28 01:30:51;;;;;;;0.70;0.70;;;13.70;82.60;;;;;;6308955;22;20439;-75
2022/06/28 01:33:17;;;;;;;0.63;0.60;;;13.60;82.60;;;;;;6318883;22;20010;-75
2022/06/28 01:35:42;;;;;;;0.60;0.57;;;13.70;82.70;;;;;;6309985;22;19995;-75
2022/06/28 01:38:10;;;;;;;0.50;0.50;;;13.70;82.80;;;;;;6309517;22;20003;-75
2022/06/28 01:40:36;;;;;;;1.00;0.57;;;13.70;82.80;;;;;;6336591;22;20435;-75
2022/06/28 01:43:02;;;;;;;0.60;0.60;;;13.60;82.80;;;;;;6309153;22;20089;-75
2022/06/28 01:45:29;;;;;;;0.60;0.60;;;13.60;82.90;;;;;;6337137;22;20049;-75
2022/06/28 01:47:55;;;;;;;0.52;0.52;;;13.50;82.80;;;;;;6309307;22;20384;-75
2022/06/28 01:50:21;;;;;;;0.73;0.63;;;13.50;82.90;;;;;;6336371;22;20014;-75
2022/06/28 01:52:46;;;;;;;0.73;0.73;;;13.50;82.90;;;;;;6283029;22;20307;-75
2022/06/28 01:55:12;;;;;;;0.57;0.57;;;13.50;82.90;;;;;;6337078;22;20026;-75
2022/06/28 01:57:39;;;;;;;0.60;0.60;;;13.40;82.90;;;;;;6331148;22;20342;-75
2022/06/28 02:00:08;;;;;;;1.05;0.57;;;13.40;83.00;;;;;;6336996;22;20022;-75
2022/06/28 02:02:34;;;;;;;0.88;0.60;;;13.40;83.00;;;;;;6306931;22;20015;-75
2022/06/28 02:05:00;;;;;;;0.60;0.60;;;13.40;83.10;;;;;;6336441;22;20037;-75
2022/06/28 02:07:26;;;;;;;0.60;0.60;;;13.40;83.10;;;;;;6308506;22;20009;-75
2022/06/28 02:09:52;;;;;;;0.63;0.63;;;13.40;83.10;;;;;;6336219;22;20319;-75
2022/06/28 02:12:18;;;;;;;0.52;0.52;;;13.40;83.10;;;;;;6336431;22;19994;-75
2022/06/28 02:14:43;;;;;;;0.80;0.63;;;13.30;83.10;;;;;;6336898;22;20431;-76
2022/06/28 02:17:11;;;;;;;0.43;0.43;;;13.30;83.10;;;;;;6336372;22;20007;-76
2022/06/28 02:19:37;;;;;;;0.77;0.77;;;13.30;83.10;;;;;;6281526;22;20517;-76
2022/06/28 02:22:03;;;;;;;0.60;0.60;;;13.30;83.10;;;;;;6336508;22;20030;-75
2022/06/28 02:24:30;;;;;;;0.85;0.60;;;13.30;83.10;;;;;;6336721;22;20002;-75
2022/06/28 02:26:55;;;;;;;0.60;0.60;;;13.40;83.20;;;;;;6336037;22;20018;-75
2022/06/28 02:29:21;;;;;;;0.50;0.50;;;13.30;83.20;;;;;;6308916;22;20015;-75
2022/06/28 02:31:47;;;;;;;0.55;0.55;;;13.20;83.20;;;;;;6336479;22;20386;-76
2022/06/28 02:40:21;;;;;;;0.85;0.68;;;13.20;83.30;;;;;;6336318;22;20327;-75
2022/06/28 02:42:21;;;;;;;0.70;0.70;;;13.20;83.40;;;;;;6336105;22;20018;-75
2022/06/28 02:44:47;;;;;;;0.50;0.50;;;13.30;83.40;;;;;;6308568;22;20010;-76
2022/06/28 02:47:12;;;;;;;0.50;0.50;;;13.20;84.00;;;;;;6336157;22;20510;-76
2022/06/28 02:49:38;;;;;;;0.52;0.52;;;13.10;83.40;;;;;;6336094;22;20423;-75
2022/06/28 02:52:04;;;;;;;0.60;0.55;;;13.10;83.40;;;;;;6305630;22;20067;-76
2022/06/28 02:54:30;;;;;;;0.52;0.52;;;13.10;83.40;;;;;;6308190;22;20013;-76
2022/06/28 02:56:56;;;;;;;0.70;0.70;;;13.20;83.50;;;;;;6335990;22;20032;-76
2022/06/28 02:59:21;;;;;;;0.47;0.47;;;13.10;83.50;;;;;;6306875;22;20007;-75
2022/06/28 03:01:47;;;;;;;0.60;0.60;;;13.00;83.40;;;;;;6336700;22;19999;-76
2022/06/28 03:04:13;;;;;;;0.80;0.80;;;13.10;83.50;;;;;;6336313;22;20006;-75
2022/06/28 03:06:39;;;;;;;0.63;0.63;;;13.00;83.50;;;;;;6335877;22;20006;-76
2022/06/28 03:09:04;;;;;;;0.63;0.60;;;13.10;83.60;;;;;;6335932;22;20007;-76
2022/06/28 03:11:30;;;;;;;0.75;0.50;;;13.00;83.50;;;;;;6336533;22;20379;-75
2022/06/28 03:13:56;;;;;;;0.73;0.60;;;13.10;83.70;;;;;;6306990;22;20074;-76
2022/06/28 03:16:22;;;;;;;0.50;0.50;;;13.00;83.60;;;;;;6308338;22;19991;-76
2022/06/28 03:18:47;;;;;;;0.70;0.50;;;13.00;83.60;;;;;;6335703;22;20037;-76
2022/06/28 03:21:13;;;;;;;0.60;0.60;;;13.00;83.60;;;;;;6308479;22;20006;-76
2022/06/28 03:23:40;;;;;;;0.50;0.50;;;13.00;83.60;;;;;;6335945;22;19999;-76
2022/06/28 03:26:06;;;;;;;0.60;0.60;;;13.10;83.70;;;;;;6311870;22;20034;-76
2022/06/28 03:28:32;;;;;;;0.63;0.63;;;13.00;83.60;;;;;;6308453;22;20011;-76
2022/06/28 03:30:58;;;;;;;0.95;0.68;;;13.10;83.70;;;;;;6335463;22;20034;-76
2022/06/28 03:33:23;;;;;;;0.50;0.50;;;13.10;83.70;;;;;;6335778;22;20078;-76
2022/06/28 03:35:49;;;;;;;0.70;0.60;;;13.00;83.60;;;;;;6335797;22;20003;-76
2022/06/28 03:38:15;;;;;;;0.45;0.45;;;13.00;83.70;;;;;;6335610;22;20014;-76
2022/06/28 03:40:40;;;;;;;0.52;0.50;;;13.00;84.40;;;;;;6336140;22;20065;-76
2022/06/28 03:43:06;;;;;;;0.40;0.40;;;13.00;83.80;;;;;;6336401;22;20007;-76
2022/06/28 03:45:32;;;;;;;0.50;0.50;;;12.80;83.70;;;;;;6335494;22;20025;-76
2022/06/28 03:47:58;;;;;;;0.50;0.50;;;12.90;83.80;;;;;;6307700;22;20017;-76
2022/06/28 03:50:24;;;;;;;0.80;0.70;;;13.00;83.80;;;;;;6336280;22;20048;-76
2022/06/28 03:52:50;;;;;;;0.40;0.40;;;13.00;83.80;;;;;;6337062;22;20022;-76
2022/06/28 03:55:16;;;;;;;0.45;0.45;;;13.00;83.70;;;;;;6282042;22;19996;-76
2022/06/28 03:57:42;;;;;;;0.80;0.80;;;13.00;83.70;;;;;;6336839;22;20005;-76
2022/06/28 04:00:08;;;;;;;0.68;0.68;;;12.90;83.70;;;;;;6329123;22;20053;-75
2022/06/28 04:02:34;;;;;;;0.35;0.35;;;13.00;83.70;;;;;;6336716;22;20039;-76
2022/06/28 04:05:00;;;;;;;0.57;0.57;;;13.00;83.70;;;;;;6337448;22;20015;-76
2022/06/28 04:07:25;;;;;;;0.38;0.38;;;13.00;83.70;;;;;;6306872;22;20117;-76
2022/06/28 04:09:51;;;;;;;0.90;0.52;;;13.00;83.70;;;;;;6337504;22;20056;-75
2022/06/28 04:12:17;;;;;;;0.60;0.60;;;13.00;83.70;;;;;;6309678;22;20439;-75
2022/06/28 04:14:43;;;;;;;0.47;0.47;;;13.00;83.70;;;;;;6307063;22;20432;-75
2022/06/28 04:17:08;;;;;;;0.70;0.55;;;13.10;83.70;;;;;;6340201;22;20037;-75
2022/06/28 04:19:34;;;;;;;0.47;0.47;;;13.00;83.70;;;;;;6337024;22;19999;-75
2022/06/28 04:22:00;;;;;;;0.52;0.52;;;13.10;83.70;;;;;;6309419;22;20084;-75
2022/06/28 04:24:25;;;;;;;0.60;0.60;;;13.10;83.70;;;;;;6309789;22;20013;-75
2022/06/28 04:26:51;;;;;;;0.55;0.43;;;13.10;83.70;;;;;;6337641;22;20014;-76
2022/06/28 04:29:17;;;;;;;0.50;0.50;;;13.10;83.70;;;;;;6336756;22;20064;-76
2022/06/28 04:31:43;;;;;;;0.98;0.70;;;13.10;83.80;;;;;;6307598;22;20010;-76
2022/06/28 04:34:09;;;;;;;0.88;0.60;;;13.20;83.80;;;;;;6309320;22;20547;-76
2022/06/28 04:36:34;;;;;;;0.70;0.60;;;13.20;83.70;;;;;;6337436;22;20015;-76
2022/06/28 04:39:00;;;;;;;0.60;0.60;;;13.20;83.50;;;;;;6316529;22;20010;-76
2022/06/28 04:41:26;;;;;;;0.63;0.63;;;13.30;83.50;;;;;;6283654;22;20086;-76
2022/06/28 04:43:53;;;;;;;1.05;0.65;;;13.50;83.50;;;;;;6309261;22;20006;-76
2022/06/28 04:46:20;;;;;;;0.40;0.40;;;13.40;83.30;;;;;;6337011;22;20003;-76
2022/06/28 04:48:46;;;;;;;0.63;0.60;;;13.40;83.30;;;;;;6308130;22;20384;-76
2022/06/28 04:51:12;;;;;;;0.55;0.50;;;13.60;83.30;;;;;;6309659;22;20027;-76
2022/06/28 04:53:40;;;;;;;0.65;0.65;;;13.50;83.20;;;;;;6309522;22;20005;-75
2022/06/28 04:56:06;;;;;;;0.82;0.70;;;13.50;83.20;;;;;;6337054;22;20005;-75
2022/06/28 04:58:32;;;;;;;0.60;0.57;;;13.60;83.20;;;;;;6310432;22;20021;-75
2022/06/28 05:00:58;;;;;;;0.47;0.47;;;13.60;83.20;;;;;;6336747;22;20434;-76
2022/06/28 05:03:24;;;;;;;0.73;0.60;;;13.70;83.20;;;;;;6309489;22;20006;-75
2022/06/28 05:05:50;;;;;;;0.43;0.43;;;13.70;83.20;;;;;;6336927;22;20515;-75
2022/06/28 05:08:15;;;;;;;0.40;0.40;;;13.70;83.20;;;;;;6309730;22;20097;-75
2022/06/28 05:10:41;;;;;;;0.93;0.65;;;13.80;83.10;;;;;;6337652;22;20003;-75
2022/06/28 05:13:07;;;;;;;0.82;0.52;;;13.80;83.00;;;;;;6336849;22;19999;-75
2022/06/28 05:15:33;;;;;;;0.70;0.70;;;13.90;83.10;;;;;;6337599;22;20001;-76
2022/06/28 05:17:58;;;;;;;0.52;0.52;;;13.90;83.00;;;;;;6336870;22;20037;-75
2022/06/28 05:20:24;;;;;;;0.60;0.50;;;14.00;82.80;;;;;;6309345;22;20007;-76
2022/06/28 05:22:50;;;;;;;0.50;0.50;;;14.10;82.80;;;;;;6337488;22;20018;-75
2022/06/28 05:25:15;;;;;;;0.60;0.60;;;14.20;82.70;;;;;;6336923;22;20339;-76
2022/06/28 05:27:41;;;;;;;1.40;0.63;;;14.30;82.50;;;;;;6318828;22;20379;-76
2022/06/28 05:30:08;;;;;;;1.02;0.65;;;14.30;82.40;;;;;;6336694;22;20078;-76
2022/06/28 05:32:33;;;;;;;0.40;0.40;;;14.40;82.30;;;;;;6309783;22;20085;-76
2022/06/28 05:34:59;;;;;;;0.63;0.63;;;14.50;82.20;;;;;;6309498;22;20026;-76
2022/06/28 05:37:25;;;;;;;0.73;0.70;;;14.70;82.20;;;;;;6271692;22;20043;-75
2022/06/28 05:39:50;;;;;;;0.47;0.47;;;14.70;82.00;;;;;;6271964;22;20011;-76
2022/06/28 05:42:16;;;;;;;0.50;0.50;;;14.80;81.90;;;;;;6246654;22;20098;-76
2022/06/28 05:44:43;;;;;;;0.65;0.57;;;14.80;81.90;;;;;;6247461;22;20008;-76
2022/06/28 05:47:10;;;;;;;0.70;0.65;;;14.90;81.90;;;;;;6247040;22;20003;-75
2022/06/28 05:49:36;;;;;;;0.50;0.50;;;15.00;81.80;;;;;;6246724;22;20008;-77
2022/06/28 05:52:02;;;;;;;0.63;0.60;;;15.10;81.80;;;;;;6246115;22;20099;-76
2022/06/28 05:54:27;;;;;;;0.82;0.60;;;15.10;81.80;;;;;;6246301;22;20008;-76
2022/06/28 05:56:53;;;;;;;0.73;0.60;;;15.10;81.70;;;;;;6271916;22;20094;-76
2022/06/28 05:59:19;;;;;;;0.50;0.50;;;15.20;81.80;;;;;;6246295;22;20130;-76
2022/06/28 06:01:44;;;;;;;1.50;0.70;;;15.20;81.80;;;;;;6272225;22;20042;-76
2022/06/28 06:04:10;;;;;;;1.58;0.80;;;15.30;81.70;;;;;;6246617;22;20031;-76
2022/06/28 06:06:36;;;;;;;0.70;0.50;;;15.30;81.70;;;;;;6271986;22;20007;-76
2022/06/28 06:09:02;;;;;;;0.65;0.65;;;15.30;81.70;;;;;;6317826;22;20026;-76
2022/06/28 06:11:28;;;;;;;0.73;0.73;;;15.30;81.70;;;;;;6336429;22;20002;-76
2022/06/28 06:13:54;;;;;;;0.93;0.70;;;15.40;81.70;;;;;;6336305;22;20013;-77
2022/06/28 06:16:20;;;;;;;1.95;0.70;;;15.40;81.70;;;;;;6336322;22;20374;-76
2022/06/28 06:18:45;;;;;;;1.27;0.50;;;15.40;81.70;;;;;;6336288;22;20510;-75
2022/06/28 06:21:11;;;;;;;0.30;0.30;;;15.50;81.70;;;;;;6334796;22;20006;-76
2022/06/28 06:23:37;;;;;;;0.90;0.40;;;15.50;81.50;;;;;;6336565;22;20011;-76
2022/06/28 06:26:03;;;;;;;0.95;0.68;;;15.60;81.50;;;;;;6336801;22;20365;-75
2022/06/28 06:28:30;;;;;;;0.68;0.40;;;15.70;81.40;;;;;;6309293;22;20007;-75
2022/06/28 06:30:56;;;;;;;0.50;0.50;;;15.80;81.30;;;;;;6310313;22;20059;-76
2022/06/28 06:33:21;;;;;;;0.52;0.47;;;15.90;81.20;;;;;;6283084;22;19999;-76
2022/06/28 06:35:47;;;;;;;1.55;0.70;;;15.90;81.00;;;;;;6309301;22;20006;-75
2022/06/28 06:38:13;;;;;;;0.63;0.63;;;15.90;80.80;;;;;;6337234;22;19999;-76
2022/06/28 06:40:38;;;;;;;1.85;0.52;;;15.90;80.70;;;;;;6336728;22;20077;-75
2022/06/28 06:43:04;;;;;;;0.60;0.57;;;16.00;80.50;;;;;;6308600;22;20033;-76
2022/06/28 06:45:30;;;;;;;0.63;0.52;;;16.10;80.40;;;;;;6308773;22;20064;-76
2022/06/28 06:47:56;;;;;;;1.85;0.88;;;16.20;80.30;;;;;;6336501;22;20010;-75
2022/06/28 06:50:22;;;;;;;0.60;0.60;;;16.30;80.20;;;;;;6308846;22;20085;-76
2022/06/28 06:52:49;;;;;;;2.33;0.60;;;16.50;80.10;;;;;;6309219;22;20002;-76
2022/06/28 06:55:18;;;;;;;0.50;0.50;;;16.50;79.90;;;;;;6336243;22;20010;-75
2022/06/28 06:57:45;;;;;;;1.85;0.70;;;16.60;79.70;;;;;;6308625;22;20080;-76
2022/06/28 08:20:20;;;;;;;1.63;0.80;;;20.20;76.30;;;;;;6306082;22;20027;-74
2022/06/28 08:22:46;;;;;;;3.83;0.88;;;20.20;75.90;;;;;;6277893;22;20008;-72
2022/06/28 08:47:36;;;;;;;0.32;0.32;;;21.10;74.30;;;;;;6056854;23;19916;-74
2022/06/28 08:58:22;;;;;;;0.40;0.35;;;21.40;73.60;;;;;;6060926;23;20022;-75
2022/06/28 09:01:14;;;;;;;0.63;0.30;;;21.50;73.30;;;;;;6040772;23;20030;-75
2022/06/28 09:03:40;;;;;;;0.30;0.30;;;21.40;73.20;;;;;;6037813;23;20011;-75
2022/06/28 09:14:14;;;;;;;1.40;0.45;;;21.70;72.60;;;;;;5991998;23;20075;-75
2022/06/28 09:23:53;;;;;;;0.93;0.30;;;21.90;71.80;;;;;;5961044;24;20024;-76
2022/06/28 09:27:12;;;;;;;1.20;0.30;;;22.00;71.80;;;;;;5853213;24;20027;-76
2022/06/28 09:40:58;;;;;;;0.40;0.40;;;22.50;70.50;;;;;;5842164;24;20022;-76
2022/06/28 09:44:00;;;;;;;0.40;0.30;;;22.50;70.20;;;;;;5737501;24;20043;-76
2022/06/28 09:56:27;;;;;;;0.63;0.30;;;22.60;69.50;;;;;;5917438;24;20032;-75
2022/06/28 10:02:52;;;;;;;0.30;0.30;;;22.60;69.00;;;;;;5913127;24;20346;-75
2022/06/28 10:05:17;;;;;;;0.90;0.50;;;22.80;68.60;;;;;;5868232;24;20101;-75
2022/06/28 10:07:44;;;;;;;0.50;0.28;;;22.90;68.50;;;;;;5907976;24;20090;-75
2022/06/28 10:10:10;;;;;;;0.20;0.20;;;22.90;68.20;;;;;;5890920;24;20097;-73
2022/06/28 10:16:46;;;;;;;0.25;0.25;;;23.00;67.50;;;;;;5865210;24;20041;-75
2022/06/28 10:19:18;;;;;;;0.30;0.30;;;23.00;67.40;;;;;;5920529;24;20020;-74
2022/06/28 10:22:34;;;;;;;0.43;0.35;;;23.00;67.50;;;;;;5923556;24;20016;-75
2022/06/28 10:28:49;;;;;;;0.30;0.30;;;22.90;67.50;;;;;;5927433;24;20021;-75
2022/06/28 10:56:44;;;;;;;0.70;0.20;;;23.20;66.00;;;;;;5986841;23;20017;-73
2022/06/28 10:59:57;;;;;;;0.30;0.30;;;23.30;65.80;;;;;;6049356;23;20007;-74
2022/06/28 11:02:43;;;;;;;0.20;0.20;;;23.50;65.40;;;;;;6024190;23;20018;-74
2022/06/28 11:09:13;;;;;;;0.50;0.30;;;23.50;65.20;;;;;;6033361;23;20026;-73
2022/06/28 11:12:07;;;;;;;0.40;0.35;;;23.40;65.10;;;;;;6011167;23;20023;-73
2022/06/28 11:14:47;;;;;;;0.57;0.30;;;23.60;64.90;;;;;;6018767;23;20031;-73
2022/06/28 11:17:20;;;;;;;1.00;0.43;;;23.60;64.60;;;;;;6142557;23;20001;-74
2022/06/28 11:24:02;;;;;;;0.63;0.38;;;23.60;64.40;;;;;;6040993;23;20106;-74
2022/06/28 11:44:50;;;;;;;0.68;0.30;;;23.50;64.00;;;;;;5804135;24;20093;-75
2022/06/28 12:05:29;;;;;;;0.32;0.32;;;23.40;63.50;;;;;;5735182;24;20130;-73
2022/06/28 12:07:55;;;;;;;1.35;0.47;;;23.20;64.10;;;;;;5684545;25;20444;-74
2022/06/28 12:10:24;;;;;;;1.15;0.40;;;23.20;64.40;;;;;;5731516;24;20510;-73
2022/06/28 12:12:56;;;;;;;0.50;0.28;;;23.30;64.10;;;;;;5779501;24;20076;-73
2022/06/28 12:15:32;;;;;;;0.30;0.30;;;23.40;63.80;;;;;;5764289;24;20372;-74
2022/06/28 12:18:05;;;;;;;0.30;0.30;;;23.40;63.60;;;;;;5784352;24;20172;-75
2022/06/28 12:31:43;;;;;;;0.30;0.30;;;23.80;62.90;;;;;;6065745;23;20058;-74
2022/06/28 12:34:10;;;;;;;0.40;0.30;;;23.80;62.50;;;;;;6154607;23;20013;-75
2022/06/28 12:36:36;;;;;;;0.25;0.20;;;23.80;62.50;;;;;;6155800;23;20503;-74
2022/06/28 12:39:03;;;;;;;0.30;0.30;;;23.80;62.60;;;;;;6180333;23;20017;-75
2022/06/28 12:41:29;;;;;;;0.50;0.50;;;23.90;62.50;;;;;;6181186;23;20444;-74
2022/06/28 12:43:54;;;;;;;1.00;0.50;;;24.00;62.30;;;;;;6180947;23;20079;-74
2022/06/28 12:46:20;;;;;;;0.40;0.40;;;23.90;62.20;;;;;;6181304;23;20326;-74
2022/06/28 12:48:46;;;;;;;0.30;0.30;;;23.90;62.20;;;;;;6156328;23;20052;-74
2022/06/28 12:51:12;;;;;;;0.40;0.40;;;23.80;62.40;;;;;;6180357;23;20505;-75
2022/06/28 14:15:34;;;;;;;0.20;0.20;;;23.50;62.50;;;;;;6307090;22;20022;-74
2022/06/28 14:20:57;;;;;;;0.63;0.30;;;23.70;62.00;;;;;;6121667;23;20330;-74
2022/06/28 14:23:23;;;;;;;0.25;0.25;;;23.80;61.80;;;;;;6121386;23;20017;-74
2022/06/28 14:25:49;;;;;;;0.50;0.30;;;23.80;61.50;;;;;;6121660;23;20467;-74
2022/06/28 14:28:15;;;;;;;0.20;0.20;;;23.90;61.30;;;;;;6121158;23;20014;-74
2022/06/28 14:30:43;;;;;;;0.38;0.30;;;24.00;61.20;;;;;;6120853;23;20013;-74
2022/06/28 14:33:11;;;;;;;0.30;0.30;;;24.00;61.10;;;;;;6121064;23;20002;-74
2022/06/28 14:35:36;;;;;;;0.30;0.30;;;24.00;60.90;;;;;;6120835;23;20063;-74
2022/06/28 14:38:04;;;;;;;0.63;0.20;;;23.90;60.90;;;;;;6121117;23;20500;-74
2022/06/28 14:40:32;;;;;;;0.20;0.20;;;23.80;61.10;;;;;;6121181;23;20010;-74
2022/06/28 14:42:59;;;;;;;0.52;0.30;;;23.90;61.20;;;;;;6097152;23;20439;-74
2022/06/28 14:45:27;;;;;;;0.25;0.25;;;23.80;61.00;;;;;;6096613;23;20010;-74
2022/06/28 14:47:54;;;;;;;0.20;0.20;;;23.80;61.20;;;;;;6221512;22;20012;-74
2022/06/28 14:50:19;;;;;;;0.20;0.20;;;23.70;61.40;;;;;;6215128;22;20110;-74
2022/06/28 14:52:45;;;;;;;0.90;0.38;;;23.70;61.60;;;;;;6303301;22;20027;-74
2022/06/28 14:55:11;;;;;;;0.55;0.20;;;23.70;61.60;;;;;;6304480;22;20499;-74
2022/06/28 14:57:37;;;;;;;0.57;0.38;;;23.70;61.50;;;;;;6303094;22;20428;-74
2022/06/28 15:00:04;;;;;;;0.32;0.20;;;23.70;61.30;;;;;;6304423;22;20007;-74
2022/06/28 15:02:30;;;;;;;1.02;0.20;;;23.70;61.20;;;;;;6303604;22;20038;-74
2022/06/28 15:04:55;;;;;;;0.20;0.20;;;23.70;61.30;;;;;;6304685;22;20007;-74
2022/06/28 15:07:21;;;;;;;0.20;0.20;;;23.60;61.30;;;;;;6303378;22;19999;-73
2022/06/28 15:09:48;;;;;;;0.40;0.35;;;23.60;61.30;;;;;;6303048;22;20023;-74
2022/06/28 15:12:13;;;;;;;0.38;0.38;;;23.60;61.30;;;;;;6304989;22;19995;-74
2022/06/28 15:14:39;;;;;;;0.20;0.20;;;23.60;61.20;;;;;;6304798;22;20014;-74
2022/06/28 15:17:06;;;;;;;0.20;0.20;;;23.80;60.90;;;;;;6303557;22;19995;-74
2022/06/28 15:19:32;;;;;;;0.20;0.20;;;23.90;60.60;;;;;;6304651;22;20045;-74
2022/06/28 15:54:26;;;;;;;0.20;0.20;;;24.00;60.00;;;;;;6298047;22;20026;-73
2022/06/28 15:56:52;;;;;;;0.20;0.20;;;24.00;59.60;;;;;;6251605;22;20019;-75
2022/06/28 16:00:11;;;;;;;0.30;0.30;;;24.00;59.40;;;;;;6250602;22;20011;-76
2022/06/28 16:06:44;;;;;;;0.28;0.28;;;24.00;59.80;;;;;;6319872;22;20454;-73
2022/06/28 16:13:16;;;;;;;0.20;0.20;;;24.20;59.10;;;;;;6255057;22;20662;-74
2022/06/28 16:19:47;;;;;;;0.40;0.40;;;24.20;58.50;;;;;;6106809;23;20439;-74
2022/06/28 16:22:14;;;;;;;0.28;0.28;;;24.30;58.40;;;;;;6120737;23;20018;-73
2022/06/28 16:24:40;;;;;;;0.30;0.30;;;24.40;58.40;;;;;;6096191;23;20088;-73
2022/06/28 16:27:13;;;;;;;1.10;0.30;;;24.40;58.20;;;;;;6097023;23;20092;-73
2022/06/28 16:29:39;;;;;;;0.20;0.20;;;24.50;58.10;;;;;;6096521;23;20053;-73
2022/06/28 16:32:06;;;;;;;0.38;0.30;;;24.40;58.00;;;;;;6062945;23;20019;-73
2022/06/28 16:34:32;;;;;;;0.30;0.20;;;24.30;58.00;;;;;;6062893;23;20011;-73
2022/06/28 16:36:58;;;;;;;0.22;0.22;;;24.30;57.90;;;;;;6032178;23;20086;-72
2022/06/28 16:39:24;;;;;;;0.20;0.20;;;24.40;57.90;;;;;;6015373;23;20015;-73
2022/06/28 16:41:50;;;;;;;0.47;0.30;;;24.40;57.70;;;;;;6062700;23;20360;-73
2022/06/28 16:44:16;;;;;;;0.20;0.20;;;24.40;57.50;;;;;;6063262;23;20093;-73
2022/06/28 16:46:41;;;;;;;0.28;0.28;;;24.50;57.40;;;;;;6087826;23;20039;-72
2022/06/28 16:49:09;;;;;;;0.30;0.30;;;24.50;57.30;;;;;;6119099;23;20045;-73
2022/06/28 16:51:35;;;;;;;0.30;0.30;;;24.50;57.40;;;;;;6160882;23;20012;-73
2022/06/28 16:54:04;;;;;;;0.30;0.30;;;24.50;57.40;;;;;;6160577;23;20087;-73
2022/06/28 16:56:32;;;;;;;0.30;0.30;;;24.60;57.30;;;;;;6133849;23;20378;-73
2022/06/28 16:59:01;;;;;;;0.95;0.30;;;24.60;57.10;;;;;;6126610;23;20446;-73
2022/06/28 17:01:27;;;;;;;0.30;0.30;;;24.70;57.00;;;;;;6155024;23;20024;-73
2022/06/28 17:03:53;;;;;;;0.43;0.20;;;24.70;56.90;;;;;;6180172;22;20017;-73
2022/06/28 17:08:57;;;;;;;0.20;0.20;;;24.60;57.00;;;;;;6201143;22;20025;-73
2022/06/28 17:11:23;;;;;;;0.25;0.25;;;24.50;57.20;;;;;;6166338;22;20066;-73
2022/06/28 17:13:49;;;;;;;0.30;0.20;;;24.40;57.50;;;;;;6166495;22;20000;-73
2022/06/28 17:16:15;;;;;;;0.52;0.25;;;24.20;57.80;;;;;;6166434;22;20329;-73
2022/06/28 17:18:42;;;;;;;0.40;0.20;;;24.10;58.10;;;;;;6215146;23;20038;-73
2022/06/28 17:21:08;;;;;;;0.20;0.20;;;23.90;58.60;;;;;;6189763;23;20015;-73
2022/06/28 17:23:35;;;;;;;0.35;0.20;;;23.80;58.50;;;;;;6215395;23;20012;-73
2022/06/28 17:26:01;;;;;;;0.30;0.30;;;23.70;58.70;;;;;;6166496;23;20012;-73
2022/06/28 17:28:27;;;;;;;0.30;0.30;;;23.70;58.90;;;;;;6231477;22;20066;-73
2022/06/28 17:30:54;;;;;;;0.20;0.20;;;23.60;58.90;;;;;;6298661;22;20014;-73
2022/06/28 17:33:20;;;;;;;0.20;0.20;;;23.60;59.00;;;;;;6305949;22;20030;-73
2022/06/28 17:35:46;;;;;;;0.20;0.20;;;23.70;58.90;;;;;;6278080;22;20000;-73
2022/06/28 17:38:12;;;;;;;0.30;0.30;;;23.80;58.60;;;;;;6305441;22;20026;-73
2022/06/28 17:40:39;;;;;;;0.50;0.30;;;23.90;59.00;;;;;;6305148;22;20015;-73
2022/06/28 17:43:05;;;;;;;0.43;0.30;;;24.00;58.20;;;;;;6305507;22;20111;-73
2022/06/28 17:45:31;;;;;;;0.20;0.20;;;24.00;58.00;;;;;;6305156;22;20431;-72
2022/06/28 18:09:21;;;;;;;0.30;0.30;;;23.70;58.10;;;;;;6119308;23;20168;-72
2022/06/28 18:11:47;;;;;;;0.20;0.20;;;23.50;58.50;;;;;;6096650;23;20153;-73
2022/06/28 18:14:13;;;;;;;0.77;0.20;;;23.60;58.60;;;;;;6096948;23;20038;-74
2022/06/28 18:16:42;;;;;;;0.30;0.20;;;23.60;58.90;;;;;;6072477;23;20069;-73
2022/06/28 18:19:08;;;;;;;0.20;0.20;;;24.10;58.90;;;;;;6070832;23;20002;-73
2022/06/28 18:21:33;;;;;;;0.30;0.30;;;24.60;57.10;;;;;;6096581;23;20041;-73
2022/06/28 18:23:59;;;;;;;0.35;0.20;;;25.10;56.70;;;;;;6121031;23;20009;-73
2022/06/28 18:26:25;;;;;;;0.30;0.30;;;26.00;55.60;;;;;;6096880;23;20403;-73
2022/06/28 18:28:51;;;;;;;0.63;0.40;;;26.60;54.20;;;;;;6175388;23;20017;-73
2022/06/28 18:31:18;;;;;;;0.47;0.32;;;27.10;53.60;;;;;;6230088;22;20038;-72
2022/06/28 18:33:43;;;;;;;0.40;0.40;;;27.60;53.40;;;;;;6305176;22;20313;-72
2022/06/28 18:36:09;;;;;;;0.30;0.30;;;28.10;53.00;;;;;;6305518;22;20053;-73
2022/06/28 18:38:35;;;;;;;0.75;0.50;;;28.50;52.50;;;;;;6304415;22;20082;-72
2022/06/28 18:41:01;;;;;;;0.60;0.60;;;28.80;52.00;;;;;;6301372;22;20439;-73
2022/06/28 18:43:27;;;;;;;0.90;0.63;;;28.90;51.70;;;;;;6304812;22;20007;-74
2022/06/28 18:45:52;;;;;;;0.50;0.50;;;28.90;51.60;;;;;;6305154;22;20007;-73
2022/06/28 18:48:19;;;;;;;0.47;0.47;;;28.90;52.20;;;;;;6304420;22;20036;-72
2022/06/28 18:50:45;;;;;;;0.38;0.38;;;28.70;51.60;;;;;;6305549;22;20005;-72
2022/06/28 18:53:11;;;;;;;0.47;0.45;;;28.50;51.80;;;;;;6303695;22;20378;-73
2022/06/28 18:55:36;;;;;;;0.60;0.45;;;28.20;52.40;;;;;;6304653;22;20038;-72
2022/06/28 18:58:03;;;;;;;0.82;0.50;;;27.90;52.90;;;;;;6301371;22;19999;-74
2022/06/28 19:00:28;;;;;;;0.30;0.30;;;27.70;53.30;;;;;;6302928;22;20354;-74
2022/06/28 19:02:54;;;;;;;0.73;0.50;;;27.50;53.50;;;;;;6275721;22;20110;-74
2022/06/28 19:05:20;;;;;;;0.40;0.40;;;27.30;53.80;;;;;;6276101;22;20015;-73
2022/06/28 19:07:46;;;;;;;1.80;0.50;;;27.00;53.90;;;;;;6301986;22;20435;-74
2022/06/28 19:14:02;;;;;;;0.40;0.40;;;26.10;54.80;;;;;;6269455;22;20161;-75
2022/06/28 19:17:02;;;;;;;0.40;0.40;;;25.60;55.60;;;;;;6197944;23;20044;-74
2022/06/28 20:18:30;;;;;;;0.40;0.40;;;21.40;59.90;;;;;;5908229;23;20072;-74
2022/06/28 20:21:40;;;;;;;0.35;0.35;;;21.40;60.00;;;;;;5975225;24;20020;-73
2022/06/28 20:24:53;;;;;;;0.40;0.40;;;21.20;59.90;;;;;;5920149;24;20017;-74
2022/06/28 21:00:03;;;;;;;0.47;0.30;;;20.50;60.40;;;;;;6274224;22;20447;-73
2022/06/28 21:23:54;;;;;;;0.30;0.30;;;20.00;61.20;;;;;;6315176;22;20022;-73
2022/06/28 21:26:19;;;;;;;0.32;0.30;;;19.90;61.30;;;;;;6333723;22;20015;-73
2022/06/28 21:28:45;;;;;;;0.40;0.30;;;19.90;61.40;;;;;;6335992;22;20021;-73